Time;durP1;ratioP1;P1;durP2;ratioP2;P2;SDS_P1;SDS_P2;PMS_P1;PMS_P2;Temp;Humidity;BMP_temperature;BMP_pressure;BME280_temperature;BME280_humidity;BME280_pressure;Samples;Min_cycle;Max_cycle;Signal;HPM_P1;HPM_P2
2023/03/13 00:00:12;;;;;;;4.55;1.20;;;;;;;5.46;100.00;95482.81;1015043;29;20032;-66
2023/03/13 00:00:42;;;;;;;3.67;1.27;;;;;;;5.46;100.00;95473.22;1014855;29;20028;-66
2023/03/13 00:01:20;;;;;;;3.28;0.90;;;;;;;5.51;100.00;95470.69;1015407;29;20738;-66
2023/03/13 00:01:50;;;;;;;3.15;1.10;;;;;;;5.54;100.00;95479.84;1018764;29;20086;-66
2023/03/13 00:02:21;;;;;;;3.42;1.00;;;;;;;5.51;100.00;95468.09;1018772;29;20780;-66
2023/03/13 00:02:51;;;;;;;3.40;1.00;;;;;;;5.50;100.00;95473.53;1019064;29;20012;-65
2023/03/13 00:03:21;;;;;;;2.30;1.00;;;;;;;5.46;100.00;95472.41;1018801;29;20023;-66
2023/03/13 00:03:54;;;;;;;2.65;1.30;;;;;;;5.48;100.00;95472.97;1014829;29;20064;-66
2023/03/13 00:04:24;;;;;;;2.75;1.02;;;;;;;5.49;100.00;95471.94;1014762;29;20536;-66
2023/03/13 00:04:55;;;;;;;3.13;1.00;;;;;;;5.47;100.00;95474.03;1010851;29;20272;-66
2023/03/13 00:05:25;;;;;;;2.20;1.40;;;;;;;5.39;100.00;95462.16;1006967;29;20033;-66
2023/03/13 00:05:56;;;;;;;2.55;1.10;;;;;;;5.47;100.00;95474.03;1006797;29;20690;-66
2023/03/13 00:06:31;;;;;;;2.45;1.10;;;;;;;5.56;100.00;95472.56;1003384;29;20758;-66
2023/03/13 00:07:01;;;;;;;4.93;1.13;;;;;;;5.53;100.00;95468.63;1008573;29;20368;-66
2023/03/13 00:07:32;;;;;;;4.82;1.00;;;;;;;5.47;100.00;95461.00;1015538;29;20276;-67
2023/03/13 00:08:02;;;;;;;3.30;1.10;;;;;;;5.51;100.00;95470.69;1014952;29;20052;-67
2023/03/13 00:08:33;;;;;;;1.40;0.73;;;;;;;5.56;100.00;95472.56;1014876;29;20526;-65
2023/03/13 00:09:04;;;;;;;4.60;1.15;;;;;;;5.59;100.00;95469.50;1014788;29;20028;-66
2023/03/13 00:09:35;;;;;;;1.08;0.88;;;;;;;5.59;100.00;95467.69;1011143;29;20112;-66
2023/03/13 00:10:06;;;;;;;4.93;1.02;;;;;;;5.55;100.00;95460.59;1011166;29;20723;-66
2023/03/13 00:10:37;;;;;;;2.40;1.00;;;;;;;5.61;100.00;95468.25;1014720;29;20648;-66
2023/03/13 00:11:11;;;;;;;4.57;1.23;;;;;;;5.60;100.00;95468.47;1011909;29;20131;-66
2023/03/13 00:11:42;;;;;;;2.33;1.40;;;;;;;5.58;100.00;95465.34;1011080;29;20265;-66
2023/03/13 00:12:13;;;;;;;2.90;1.17;;;;;;;5.65;100.00;95465.97;1010471;29;20260;-66
2023/03/13 00:12:43;;;;;;;1.80;1.10;;;;;;;5.62;100.00;95463.81;1008302;29;20824;-66
2023/03/13 00:13:13;;;;;;;5.20;1.05;;;;;;;5.60;100.00;95453.66;1015021;29;20020;-66
2023/03/13 00:13:44;;;;;;;2.30;1.02;;;;;;;5.60;100.00;95461.47;1018918;29;20028;-66
2023/03/13 00:14:14;;;;;;;3.35;1.10;;;;;;;5.63;100.00;95465.41;1014839;29;20390;-66
2023/03/13 00:14:45;;;;;;;2.88;0.95;;;;;;;5.58;100.00;95460.91;1014657;29;20076;-66
2023/03/13 00:15:15;;;;;;;5.75;1.45;;;;;;;5.61;100.00;95464.84;1014383;29;20020;-64
2023/03/13 00:15:46;;;;;;;5.57;1.00;;;;;;;5.60;100.00;95452.84;1014565;29;20040;-65
2023/03/13 00:16:16;;;;;;;3.47;1.35;;;;;;;5.58;100.00;95454.91;1015114;29;20020;-66
2023/03/13 00:16:47;;;;;;;3.55;1.30;;;;;;;5.55;100.00;95447.59;1014832;29;20028;-66
2023/03/13 00:17:17;;;;;;;5.38;1.13;;;;;;;5.55;100.00;95453.56;1018702;29;20020;-65
2023/03/13 00:17:47;;;;;;;4.63;1.08;;;;;;;5.54;100.00;95453.81;1018893;29;20508;-66
2023/03/13 00:18:18;;;;;;;3.75;1.35;;;;;;;5.52;100.00;95453.25;1018632;29;20035;-66
2023/03/13 00:18:50;;;;;;;3.92;1.00;;;;;;;5.50;100.00;95452.69;1018682;29;20023;-65
2023/03/13 00:19:23;;;;;;;1.15;0.70;;;;;;;5.55;100.00;95455.41;1014971;29;20458;-66
2023/03/13 00:19:54;;;;;;;4.47;1.13;;;;;;;5.53;100.00;95453.00;1014801;29;20909;-66
2023/03/13 00:20:25;;;;;;;6.80;0.95;;;;;;;5.52;100.00;95453.25;1014961;29;20765;-66
2023/03/13 00:21:07;;;;;;;2.90;1.10;;;;;;;5.54;100.00;95462.41;1015224;29;20268;-66
2023/03/13 00:21:39;;;;;;;2.78;1.13;;;;;;;5.54;100.00;95464.25;1014984;29;20035;-66
2023/03/13 00:22:10;;;;;;;2.10;1.00;;;;;;;5.56;100.00;95459.56;1010721;29;20348;-66
2023/03/13 00:22:40;;;;;;;3.58;1.00;;;;;;;5.53;100.00;95452.22;1010929;29;20317;-65
2023/03/13 00:23:11;;;;;;;4.57;1.38;;;;;;;5.60;100.00;95463.25;1010961;29;20032;-65
2023/03/13 00:23:41;;;;;;;4.25;1.00;;;;;;;5.55;100.00;95455.41;1010945;29;20083;-67
2023/03/13 00:24:15;;;;;;;4.80;1.00;;;;;;;5.51;100.00;95455.09;1010861;29;20016;-66
2023/03/13 00:24:46;;;;;;;3.05;1.02;;;;;;;5.51;100.00;95455.09;1011600;29;20458;-66
2023/03/13 00:25:16;;;;;;;3.88;1.10;;;;;;;5.48;100.00;95454.78;1014190;29;20272;-65
2023/03/13 00:25:55;;;;;;;2.55;1.10;;;;;;;5.49;100.00;95448.53;1015211;29;20024;-65
2023/03/13 00:26:26;;;;;;;2.72;1.52;;;;;;;5.49;100.00;95453.75;1018774;29;20016;-66
2023/03/13 00:27:01;;;;;;;2.00;1.15;;;;;;;5.51;100.00;95454.31;1018543;29;20280;-66
2023/03/13 00:27:33;;;;;;;3.10;1.20;;;;;;;5.45;100.00;95445.63;1017096;29;20263;-66
2023/03/13 00:28:04;;;;;;;6.65;1.42;;;;;;;5.50;100.00;95452.69;1018751;29;20289;-66
2023/03/13 00:28:35;;;;;;;1.20;0.90;;;;;;;5.41;100.00;95440.09;1014926;29;20967;-66
2023/03/13 00:29:05;;;;;;;3.03;0.95;;;;;;;5.56;100.00;95456.97;1006948;29;20463;-66
2023/03/13 00:29:35;;;;;;;4.55;1.15;;;;;;;5.56;100.00;95457.75;1003245;29;20037;-66
2023/03/13 00:30:06;;;;;;;2.60;1.00;;;;;;;5.55;100.00;95455.41;1003595;29;20049;-65
2023/03/13 00:30:37;;;;;;;3.63;1.00;;;;;;;5.52;100.00;95450.66;1007370;29;20021;-65
2023/03/13 00:31:21;;;;;;;2.22;1.00;;;;;;;5.52;100.00;95445.47;1014939;29;20024;-66
2023/03/13 00:31:51;;;;;;;4.22;1.50;;;;;;;5.60;100.00;95458.06;1018788;29;20023;-66
2023/03/13 00:32:22;;;;;;;2.60;1.15;;;;;;;5.53;100.00;95447.03;1014752;29;20272;-66
2023/03/13 00:32:52;;;;;;;7.47;1.58;;;;;;;5.56;100.00;95451.75;1014950;29;20131;-66
2023/03/13 00:33:22;;;;;;;2.10;0.80;;;;;;;5.54;100.00;95452.00;1014699;29;20497;-66
2023/03/13 00:33:56;;;;;;;5.35;1.00;;;;;;;5.52;100.00;95442.84;1014826;29;20031;-65
2023/03/13 00:34:26;;;;;;;1.65;1.00;;;;;;;5.49;100.00;95440.72;1014787;29;20087;-65
2023/03/13 00:34:57;;;;;;;3.75;1.00;;;;;;;5.56;100.00;95449.16;1014626;29;20269;-66
2023/03/13 00:35:27;;;;;;;1.65;1.40;;;;;;;5.52;100.00;95442.84;1014197;29;20024;-66
2023/03/13 00:35:59;;;;;;;4.25;1.15;;;;;;;5.51;100.00;95443.88;1010763;29;20044;-65
2023/03/13 00:36:31;;;;;;;2.00;0.77;;;;;;;5.53;100.00;95442.59;1010840;29;20025;-65
2023/03/13 00:37:04;;;;;;;3.92;1.10;;;;;;;5.54;100.00;95444.19;1007112;29;20376;-66
2023/03/13 00:37:35;;;;;;;2.88;1.13;;;;;;;5.52;100.00;95440.25;1007562;29;20273;-66
2023/03/13 00:38:05;;;;;;;4.13;1.55;;;;;;;5.52;100.00;95442.84;1011948;29;20261;-65
2023/03/13 00:38:36;;;;;;;2.33;0.90;;;;;;;5.44;100.00;95436.25;1011111;29;20057;-66
2023/03/13 00:39:06;;;;;;;2.65;1.05;;;;;;;5.47;100.00;95448.00;1014605;29;20106;-67
2023/03/13 00:39:39;;;;;;;2.95;1.00;;;;;;;5.49;100.00;95440.72;1014823;29;20028;-66
2023/03/13 00:40:10;;;;;;;2.78;1.10;;;;;;;5.46;100.00;95441.19;1007227;29;20661;-66
2023/03/13 00:40:41;;;;;;;3.38;1.17;;;;;;;5.49;100.00;95443.31;1010779;29;20064;-66
2023/03/13 00:41:16;;;;;;;5.60;1.45;;;;;;;5.53;100.00;95441.81;1010995;29;20574;-65
2023/03/13 00:41:47;;;;;;;4.57;1.30;;;;;;;5.64;100.00;95449.56;1007559;29;20021;-66
2023/03/13 00:42:17;;;;;;;5.35;0.95;;;;;;;5.63;100.00;95442.78;1007846;29;20366;-66
2023/03/13 00:42:48;;;;;;;2.80;0.68;;;;;;;5.64;100.00;95441.75;1010773;29;20021;-66
2023/03/13 00:43:18;;;;;;;3.50;0.90;;;;;;;5.66;100.00;95442.28;1010828;29;20024;-65
2023/03/13 00:43:49;;;;;;;3.63;1.08;;;;;;;5.63;100.00;95437.56;1010876;29;20040;-65
2023/03/13 00:44:19;;;;;;;2.72;0.82;;;;;;;5.60;100.00;95432.84;1010805;29;20028;-66
2023/03/13 00:44:50;;;;;;;4.35;1.10;;;;;;;5.70;100.00;95434.00;1011042;29;20041;-66
2023/03/13 00:45:20;;;;;;;1.67;1.10;;;;;;;5.75;100.00;95434.88;1010094;29;20044;-65
2023/03/13 00:45:51;;;;;;;2.58;1.10;;;;;;;5.76;100.00;95436.44;1010816;29;20021;-66
2023/03/13 00:46:23;;;;;;;2.80;0.80;;;;;;;5.80;100.00;95436.75;1015024;29;20064;-66
2023/03/13 00:46:53;;;;;;;4.15;1.40;;;;;;;5.77;100.00;95430.22;1010824;29;20016;-66
2023/03/13 00:47:23;;;;;;;4.18;0.88;;;;;;;5.73;100.00;95423.91;1007274;29;20268;-65
2023/03/13 00:47:54;;;;;;;3.10;1.10;;;;;;;5.76;100.00;95430.44;1017403;29;20121;-65
2023/03/13 00:48:24;;;;;;;2.03;0.93;;;;;;;5.75;100.00;95434.88;1018665;29;20052;-65
2023/03/13 00:48:55;;;;;;;2.05;0.88;;;;;;;5.74;100.00;95429.91;1010930;29;20848;-66
2023/03/13 00:49:26;;;;;;;1.92;1.10;;;;;;;5.77;100.00;95427.63;1010090;29;20036;-65
2023/03/13 00:49:56;;;;;;;1.65;1.00;;;;;;;5.76;100.00;95426.03;1014412;29;20478;-66
2023/03/13 00:50:27;;;;;;;3.22;1.02;;;;;;;5.68;100.00;95418.63;1011077;29;20039;-67
2023/03/13 00:50:57;;;;;;;3.88;0.88;;;;;;;5.76;100.00;95425.25;1007862;29;20033;-66
2023/03/13 00:51:28;;;;;;;4.82;0.85;;;;;;;5.73;100.00;95423.09;1014139;29;20064;-67
2023/03/13 00:51:58;;;;;;;4.03;1.20;;;;;;;5.73;100.00;95421.28;1006758;29;20029;-66
2023/03/13 00:52:29;;;;;;;5.47;1.00;;;;;;;5.78;100.00;95428.41;1007013;29;20036;-66
2023/03/13 00:52:59;;;;;;;2.38;0.82;;;;;;;5.73;100.00;95426.50;1008680;29;20101;-66
2023/03/13 00:53:30;;;;;;;2.95;0.82;;;;;;;5.79;100.00;95428.16;1014530;29;20480;-66
2023/03/13 00:54:00;;;;;;;3.65;0.95;;;;;;;5.78;100.00;95421.38;1018342;29;20434;-66
2023/03/13 00:54:31;;;;;;;3.47;1.13;;;;;;;5.82;100.00;95425.06;1018826;29;20028;-66
2023/03/13 00:55:03;;;;;;;4.28;1.13;;;;;;;5.86;100.00;95420.94;1018365;29;20063;-65
2023/03/13 00:55:33;;;;;;;5.47;1.10;;;;;;;5.77;100.00;95406.78;1022093;29;20023;-65
2023/03/13 00:56:05;;;;;;;1.20;0.80;;;;;;;5.83;100.00;95421.44;1013248;29;20280;-66
2023/03/13 00:56:36;;;;;;;1.90;0.90;;;;;;;5.83;100.00;95425.84;1011180;29;20036;-66
2023/03/13 00:57:06;;;;;;;1.60;0.50;;;;;;;5.82;100.00;95414.66;1020722;29;20267;-66
2023/03/13 00:57:37;;;;;;;1.58;0.70;;;;;;;5.83;100.00;95424.03;1022901;28;20024;-66
2023/03/13 00:58:08;;;;;;;1.48;0.57;;;;;;;5.79;100.00;95417.72;1023296;28;20480;-66
2023/03/13 00:58:39;;;;;;;3.22;1.00;;;;;;;5.82;100.00;95417.25;1022563;29;20031;-66
2023/03/13 00:59:09;;;;;;;1.90;0.73;;;;;;;5.79;100.00;95412.53;1018561;29;20031;-66
2023/03/13 00:59:40;;;;;;;3.50;1.05;;;;;;;5.80;100.00;95411.53;1018636;29;20872;-66
2023/03/13 01:00:11;;;;;;;2.60;0.80;;;;;;;5.82;100.00;95411.25;1018781;29;20031;-66
2023/03/13 01:00:41;;;;;;;4.38;0.75;;;;;;;5.81;100.00;95412.31;1018616;29;20800;-66
2023/03/13 01:01:13;;;;;;;2.10;0.90;;;;;;;5.78;100.00;95418.78;1026272;28;20270;-65
2023/03/13 01:01:43;;;;;;;2.50;0.80;;;;;;;5.76;100.00;95410.41;1024197;28;20532;-66
2023/03/13 01:02:14;;;;;;;5.25;0.88;;;;;;;5.74;100.00;95416.91;1014505;29;20268;-66
2023/03/13 01:02:44;;;;;;;3.97;1.60;;;;;;;5.72;100.00;95414.50;1010842;29;20100;-66
2023/03/13 01:03:15;;;;;;;1.70;0.63;;;;;;;5.70;100.00;95408.78;1010764;29;20033;-66
2023/03/13 01:03:50;;;;;;;3.47;0.98;;;;;;;5.64;100.00;95401.94;1006992;29;20033;-66
2023/03/13 01:04:20;;;;;;;0.73;0.63;;;;;;;5.69;100.00;95409.78;1007719;29;20069;-65
2023/03/13 01:04:52;;;;;;;4.32;0.95;;;;;;;5.66;100.00;95410.25;1007328;29;20318;-66
2023/03/13 01:05:23;;;;;;;2.72;1.00;;;;;;;5.62;100.00;95409.16;1011047;29;20032;-65
2023/03/13 01:05:58;;;;;;;5.10;1.67;;;;;;;5.60;100.00;95406.00;1011037;29;20288;-66
2023/03/13 01:06:29;;;;;;;3.30;1.15;;;;;;;5.60;100.00;95411.22;1011539;29;20514;-66
2023/03/13 01:06:59;;;;;;;2.03;0.88;;;;;;;5.59;100.00;95413.03;1014701;29;20319;-67
2023/03/13 01:07:30;;;;;;;3.03;0.95;;;;;;;5.58;100.00;95411.47;1015400;29;20280;-66
2023/03/13 01:08:00;;;;;;;2.15;0.93;;;;;;;5.54;100.00;95414.78;1014526;29;20462;-66
2023/03/13 01:08:31;;;;;;;3.08;0.80;;;;;;;5.53;100.00;95397.59;1014765;29;20016;-66
2023/03/13 01:09:03;;;;;;;2.95;1.10;;;;;;;5.52;100.00;95409.03;1018444;29;20027;-66
2023/03/13 01:09:33;;;;;;;3.50;1.13;;;;;;;5.57;100.00;95409.91;1018813;29;20550;-66
2023/03/13 01:10:04;;;;;;;2.28;1.13;;;;;;;5.54;100.00;95407.78;1011092;29;20269;-66
2023/03/13 01:10:35;;;;;;;6.05;1.38;;;;;;;5.53;100.00;95408.00;1014733;29;20375;-66
2023/03/13 01:11:07;;;;;;;7.10;1.25;;;;;;;5.50;100.00;95411.88;1014797;29;20259;-66
2023/03/13 01:11:39;;;;;;;2.30;0.82;;;;;;;5.47;100.00;95411.56;1016146;29;20518;-66
2023/03/13 01:12:09;;;;;;;3.97;0.80;;;;;;;5.41;100.00;95408.88;1019098;29;20326;-66
2023/03/13 01:12:40;;;;;;;2.80;1.20;;;;;;;5.46;100.00;95410.75;1014975;29;20273;-65
2023/03/13 01:13:11;;;;;;;8.50;0.80;;;;;;;5.43;100.00;95414.66;1014782;29;20068;-66
2023/03/13 01:13:41;;;;;;;2.70;0.68;;;;;;;5.48;100.00;95410.53;1015177;29;20284;-65
2023/03/13 01:14:15;;;;;;;4.15;0.85;;;;;;;5.50;100.00;95408.47;1018896;29;20625;-66
2023/03/13 01:14:48;;;;;;;1.52;0.80;;;;;;;5.41;100.00;95401.06;1014577;29;20063;-66
2023/03/13 01:15:19;;;;;;;2.05;0.70;;;;;;;5.48;100.00;95407.94;1014125;29;20368;-65
2023/03/13 01:15:50;;;;;;;2.90;0.70;;;;;;;5.50;100.00;95405.88;1014450;29;20857;-65
2023/03/13 01:16:20;;;;;;;1.58;0.85;;;;;;;5.51;100.00;95397.06;1014846;29;20059;-66
2023/03/13 01:16:53;;;;;;;2.70;0.90;;;;;;;5.53;100.00;95400.19;1011632;29;20032;-66
2023/03/13 01:17:24;;;;;;;1.98;0.82;;;;;;;5.48;100.00;95397.53;1014302;29;20020;-66
2023/03/13 01:17:54;;;;;;;4.93;1.00;;;;;;;5.49;100.00;95394.66;1007431;29;20273;-66
2023/03/13 01:18:25;;;;;;;2.40;0.80;;;;;;;5.58;100.00;95402.88;1011423;29;20031;-66
2023/03/13 01:18:58;;;;;;;3.95;0.80;;;;;;;5.53;100.00;95390.56;1016790;29;20036;-66
2023/03/13 01:19:29;;;;;;;3.83;0.80;;;;;;;5.54;100.00;95402.56;1011349;29;20032;-66
2023/03/13 01:19:59;;;;;;;2.92;1.42;;;;;;;5.51;100.00;95408.25;1018423;29;20263;-66
2023/03/13 01:20:29;;;;;;;2.45;0.95;;;;;;;5.51;100.00;95403.03;1014598;29;20024;-66
2023/03/13 01:21:00;;;;;;;2.33;1.25;;;;;;;5.53;100.00;95406.16;1010550;29;20029;-66
2023/03/13 01:21:30;;;;;;;2.35;0.90;;;;;;;5.34;100.00;95376.25;1010485;29;20144;-66
2023/03/13 01:22:01;;;;;;;2.17;0.88;;;;;;;5.49;100.00;95404.28;1003276;29;20053;-66
2023/03/13 01:22:31;;;;;;;2.60;1.13;;;;;;;5.44;100.00;95402.41;1006975;29;20025;-66
2023/03/13 01:23:02;;;;;;;2.35;0.65;;;;;;;5.43;100.00;95398.22;1007035;29;20040;-66
2023/03/13 01:23:32;;;;;;;1.85;1.50;;;;;;;5.46;100.00;95415.19;1010556;29;20032;-66
2023/03/13 01:24:03;;;;;;;1.00;0.60;;;;;;;5.43;100.00;95403.44;1014569;29;20398;-66
2023/03/13 01:24:34;;;;;;;1.83;0.80;;;;;;;5.41;100.00;95402.91;1011035;29;20506;-66
2023/03/13 01:25:05;;;;;;;1.98;0.80;;;;;;;5.49;100.00;95404.28;1014340;29;20256;-66
2023/03/13 01:25:36;;;;;;;5.95;0.98;;;;;;;5.41;100.00;95398.47;1014103;29;20064;-67
2023/03/13 01:26:07;;;;;;;5.65;0.95;;;;;;;5.45;100.00;95401.38;1010808;29;20554;-66
2023/03/13 01:26:38;;;;;;;3.95;1.23;;;;;;;5.36;100.00;95395.78;1003379;29;20356;-66
2023/03/13 01:27:08;;;;;;;6.05;1.33;;;;;;;5.42;100.00;95400.03;1009460;29;20261;-67
2023/03/13 01:27:39;;;;;;;5.18;0.95;;;;;;;5.41;100.00;95401.06;1018282;29;20024;-66
2023/03/13 01:28:09;;;;;;;1.83;1.00;;;;;;;5.39;100.00;95403.13;1018456;29;20063;-66
2023/03/13 01:28:40;;;;;;;3.08;0.80;;;;;;;5.38;100.00;95398.16;1022670;29;20034;-67
2023/03/13 01:29:10;;;;;;;2.80;0.80;;;;;;;5.41;100.00;95402.91;1022761;28;20023;-65
2023/03/13 01:29:41;;;;;;;4.80;0.90;;;;;;;5.41;100.00;95401.06;1022261;29;20575;-66
2023/03/13 01:30:11;;;;;;;3.83;1.55;;;;;;;5.47;100.00;95395.97;1014628;29;20023;-66
2023/03/13 01:30:42;;;;;;;1.30;0.80;;;;;;;5.44;100.00;95394.63;1002924;29;20017;-66
2023/03/13 01:31:14;;;;;;;4.13;1.20;;;;;;;5.38;100.00;95395.56;1003090;29;20026;-66
2023/03/13 01:31:44;;;;;;;2.60;0.90;;;;;;;5.40;100.00;95394.31;1014558;29;20020;-66
2023/03/13 01:32:14;;;;;;;6.10;1.10;;;;;;;5.39;100.00;95394.53;1014779;29;20272;-66
2023/03/13 01:32:48;;;;;;;4.43;0.93;;;;;;;5.38;100.00;95390.34;1014502;29;20055;-66
2023/03/13 01:33:18;;;;;;;1.65;0.75;;;;;;;5.35;100.00;95394.22;1010493;29;20021;-66
2023/03/13 01:33:50;;;;;;;2.83;0.80;;;;;;;5.23;100.00;95379.72;1010542;29;20715;-66
2023/03/13 01:34:21;;;;;;;8.10;1.25;;;;;;;5.29;100.00;95394.38;1008290;29;20021;-66
2023/03/13 01:34:51;;;;;;;2.83;1.17;;;;;;;5.29;100.00;95389.16;1014643;29;20256;-66
2023/03/13 01:35:22;;;;;;;2.08;0.80;;;;;;;5.24;100.00;95392.50;1014122;29;20837;-64
2023/03/13 01:36:00;;;;;;;3.67;1.20;;;;;;;5.16;100.00;95379.88;1014142;29;20730;-65
2023/03/13 01:36:34;;;;;;;4.93;1.23;;;;;;;5.20;100.00;95391.41;1010706;29;20462;-66
2023/03/13 01:37:04;;;;;;;1.58;0.73;;;;;;;5.08;100.00;95377.69;1007093;29;20356;-66
2023/03/13 01:37:35;;;;;;;4.88;1.08;;;;;;;5.13;100.00;95377.75;1006711;29;20265;-66
2023/03/13 01:38:05;;;;;;;1.80;0.90;;;;;;;5.13;100.00;95390.75;1007955;29;20105;-66
2023/03/13 01:38:36;;;;;;;2.08;0.80;;;;;;;5.09;100.00;95369.63;1009711;29;20036;-66
2023/03/13 01:39:07;;;;;;;4.10;1.10;;;;;;;5.20;100.00;95384.38;1009590;29;20088;-66
2023/03/13 01:39:37;;;;;;;4.45;1.20;;;;;;;5.22;100.00;95388.53;1003275;29;20514;-66
2023/03/13 01:40:08;;;;;;;1.48;0.93;;;;;;;5.23;100.00;95380.53;1014342;29;20044;-66
2023/03/13 01:40:48;;;;;;;2.53;0.90;;;;;;;5.22;100.00;95373.72;1014486;29;20020;-66
2023/03/13 01:41:19;;;;;;;3.72;1.20;;;;;;;5.23;100.00;95374.50;1010557;29;20265;-66
2023/03/13 01:41:49;;;;;;;2.97;0.90;;;;;;;5.18;100.00;95370.81;1009307;29;20273;-66
2023/03/13 01:42:19;;;;;;;3.60;1.10;;;;;;;5.24;100.00;95376.88;1002943;29;20082;-66
2023/03/13 01:42:53;;;;;;;5.20;1.00;;;;;;;5.23;100.00;95371.91;1006726;29;20024;-66
2023/03/13 01:43:26;;;;;;;2.78;1.00;;;;;;;5.23;100.00;95369.31;1006625;29;20040;-66
2023/03/13 01:43:57;;;;;;;1.38;0.93;;;;;;;5.23;100.00;95372.72;1003162;29;20262;-66
2023/03/13 01:44:27;;;;;;;2.95;1.08;;;;;;;5.22;100.00;95373.72;1002797;29;20269;-66
2023/03/13 01:44:57;;;;;;;4.28;1.00;;;;;;;5.20;100.00;95370.59;999391;29;20026;-65
2023/03/13 01:45:53;;;;;;;1.55;0.98;;;;;;;5.18;100.00;95376.00;998759;29;20025;-66
2023/03/13 01:46:27;;;;;;;3.83;1.20;;;;;;;5.18;100.00;95372.63;1013491;29;20169;-66
2023/03/13 01:46:57;;;;;;;3.35;0.90;;;;;;;5.18;100.00;95372.63;1010520;29;20286;-66
2023/03/13 01:47:28;;;;;;;2.75;0.70;;;;;;;5.19;100.00;95369.00;1006814;29;20277;-66
2023/03/13 01:48:03;;;;;;;4.95;1.05;;;;;;;5.15;100.00;95358.28;1003251;29;20448;-66
2023/03/13 01:49:11;;;;;;;1.83;1.20;;;;;;;5.28;100.00;95366.78;1010628;29;20432;-66
2023/03/13 01:49:43;;;;;;;3.42;1.15;;;;;;;5.26;100.00;95361.03;1015994;29;20252;-66
2023/03/13 01:50:13;;;;;;;3.25;1.02;;;;;;;5.28;100.00;95369.41;1015614;29;21151;-65
2023/03/13 01:50:44;;;;;;;3.20;1.10;;;;;;;5.29;100.00;95366.53;1014678;29;20271;-66
2023/03/13 01:51:21;;;;;;;4.00;1.25;;;;;;;5.34;100.00;95371.06;1002695;29;20021;-66
2023/03/13 01:51:58;;;;;;;2.28;0.98;;;;;;;5.36;100.00;95369.75;996732;29;20500;-66
2023/03/13 01:52:30;;;;;;;2.42;1.15;;;;;;;5.37;100.00;95373.19;1010536;29;20391;-66
2023/03/13 01:53:00;;;;;;;3.25;1.05;;;;;;;5.37;100.00;95373.97;1008730;29;20356;-66
2023/03/13 01:53:31;;;;;;;2.85;1.17;;;;;;;5.39;100.00;95373.72;1007935;29;20266;-65
2023/03/13 01:54:05;;;;;;;5.18;1.30;;;;;;;5.34;100.00;95365.84;1002816;29;20025;-65
2023/03/13 01:54:39;;;;;;;2.75;1.38;;;;;;;5.37;100.00;95371.38;1003850;29;20254;-65
2023/03/13 01:55:11;;;;;;;5.30;1.52;;;;;;;5.32;100.00;95357.47;1014163;29;20256;-65
2023/03/13 01:55:42;;;;;;;5.25;1.50;;;;;;;5.37;100.00;95376.56;1010243;29;20264;-66
2023/03/13 01:56:20;;;;;;;3.33;1.23;;;;;;;5.36;100.00;95361.19;1010710;29;20264;-67
2023/03/13 01:56:57;;;;;;;3.47;0.90;;;;;;;5.34;100.00;95368.44;1006671;29;20017;-66
2023/03/13 01:57:36;;;;;;;2.55;0.98;;;;;;;5.40;100.00;95363.09;1008809;29;20253;-66
2023/03/13 01:58:06;;;;;;;3.35;0.90;;;;;;;5.38;100.00;95369.53;1003774;29;20272;-66
2023/03/13 01:58:37;;;;;;;5.57;1.08;;;;;;;5.36;100.00;95369.75;1003032;29;20281;-66
2023/03/13 01:59:08;;;;;;;3.15;1.00;;;;;;;5.39;100.00;95363.31;1002928;29;20022;-66
2023/03/13 01:59:41;;;;;;;2.28;1.08;;;;;;;5.35;100.00;95352.59;1003115;29;20137;-66
2023/03/13 02:00:22;;;;;;;2.42;1.00;;;;;;;5.41;100.00;95366.47;1003251;29;20610;-66
2023/03/13 02:00:53;;;;;;;3.25;0.98;;;;;;;5.41;100.00;95362.03;1012478;29;20275;-66
2023/03/13 02:01:24;;;;;;;3.88;0.98;;;;;;;5.41;100.00;95362.03;1006852;29;20342;-66
2023/03/13 02:01:56;;;;;;;3.55;1.35;;;;;;;5.39;100.00;95361.50;1002880;29;20111;-67
2023/03/13 02:02:27;;;;;;;4.63;0.93;;;;;;;5.34;100.00;95366.63;1010678;29;20047;-66
2023/03/13 02:02:59;;;;;;;4.22;1.52;;;;;;;5.36;100.00;95371.59;1003004;29;20277;-66
2023/03/13 02:03:30;;;;;;;4.10;1.45;;;;;;;5.40;100.00;95373.50;1010658;29;20024;-66
2023/03/13 02:04:00;;;;;;;3.10;1.02;;;;;;;5.41;100.00;95371.66;1010806;29;20288;-66
2023/03/13 02:04:34;;;;;;;2.22;1.13;;;;;;;5.40;100.00;95364.91;1006743;29;20017;-66
2023/03/13 02:05:04;;;;;;;1.73;0.93;;;;;;;5.38;100.00;95362.53;1007731;29;20035;-65
2023/03/13 02:05:35;;;;;;;1.83;1.20;;;;;;;5.37;100.00;95365.38;1011060;29;20279;-66
2023/03/13 02:06:06;;;;;;;3.38;0.93;;;;;;;5.48;100.00;95371.50;1003733;29;20020;-66
2023/03/13 02:06:37;;;;;;;2.95;0.95;;;;;;;5.44;100.00;95366.78;1007611;29;20586;-65
2023/03/13 02:07:11;;;;;;;6.22;1.73;;;;;;;5.43;100.00;95367.81;1011729;29;20016;-66
2023/03/13 02:07:56;;;;;;;4.13;1.20;;;;;;;5.39;100.00;95365.91;1011927;29;20265;-66
2023/03/13 02:08:37;;;;;;;4.68;0.95;;;;;;;5.41;100.00;95369.06;1014061;29;20352;-65
2023/03/13 02:09:13;;;;;;;2.50;0.90;;;;;;;5.40;100.00;95367.50;1003781;29;20266;-65
2023/03/13 02:09:48;;;;;;;2.15;0.80;;;;;;;5.37;100.00;95373.97;1011580;29;20704;-66
2023/03/13 02:10:18;;;;;;;4.70;1.05;;;;;;;5.39;100.00;95369.28;1015331;29;20887;-66
2023/03/13 02:10:52;;;;;;;5.72;1.00;;;;;;;5.37;100.00;95371.38;1016720;29;20264;-66
2023/03/13 02:11:30;;;;;;;1.42;0.82;;;;;;;5.35;100.00;95368.19;1011206;29;20019;-66
2023/03/13 02:12:09;;;;;;;3.65;0.70;;;;;;;5.32;100.00;95367.88;1009493;29;20359;-66
2023/03/13 02:12:39;;;;;;;1.88;0.93;;;;;;;5.30;100.00;95373.34;1006127;29;20270;-66
2023/03/13 02:13:13;;;;;;;6.28;1.30;;;;;;;5.28;100.00;95362.38;1005972;29;20338;-66
2023/03/13 02:13:44;;;;;;;2.55;1.30;;;;;;;5.24;100.00;95360.50;1009197;29;20446;-66
2023/03/13 02:14:18;;;;;;;1.52;0.93;;;;;;;5.23;100.00;95358.91;1004127;29;20262;-65
2023/03/13 02:14:48;;;;;;;3.15;0.85;;;;;;;5.28;100.00;95367.56;1005452;29;20521;-66
2023/03/13 02:15:20;;;;;;;3.67;1.23;;;;;;;5.27;100.00;95368.63;1010868;29;20301;-66
2023/03/13 02:15:50;;;;;;;4.32;1.30;;;;;;;5.33;100.00;95375.47;1015124;29;20020;-66
2023/03/13 02:16:21;;;;;;;2.53;1.00;;;;;;;5.31;100.00;95368.94;1015424;29;20295;-67
2023/03/13 02:16:51;;;;;;;4.85;1.20;;;;;;;5.26;100.00;95359.22;1007494;29;20078;-66
2023/03/13 02:17:22;;;;;;;3.25;1.02;;;;;;;5.32;100.00;95373.09;1007324;29;20017;-66
2023/03/13 02:17:53;;;;;;;2.88;0.90;;;;;;;5.30;100.00;95365.53;1011305;29;20028;-66
2023/03/13 02:18:25;;;;;;;4.70;0.85;;;;;;;5.30;100.00;95373.34;999774;29;20777;-66
2023/03/13 02:18:55;;;;;;;3.25;1.10;;;;;;;5.29;100.00;95369.16;1000424;29;20282;-66
2023/03/13 02:19:44;;;;;;;6.57;1.00;;;;;;;5.29;100.00;95370.97;1007856;29;20348;-66
2023/03/13 02:20:16;;;;;;;2.15;1.10;;;;;;;5.24;100.00;95368.31;1012568;29;20500;-66
2023/03/13 02:20:46;;;;;;;3.47;1.00;;;;;;;5.29;100.00;95371.75;1007593;29;20269;-66
2023/03/13 02:21:52;;;;;;;3.15;0.80;;;;;;;5.28;100.00;95380.59;1003508;29;20786;-66
2023/03/13 02:22:31;;;;;;;1.58;1.00;;;;;;;5.29;100.00;95369.16;1004708;29;20056;-65
2023/03/13 02:23:02;;;;;;;7.45;1.25;;;;;;;5.27;100.00;95373.81;1012539;29;20739;-65
2023/03/13 02:23:44;;;;;;;3.30;1.13;;;;;;;5.26;100.00;95364.41;1020338;29;20299;-66
2023/03/13 02:24:22;;;;;;;3.70;0.98;;;;;;;5.29;100.00;95369.16;1014736;29;20395;-66
2023/03/13 02:25:37;;;;;;;2.70;1.45;;;;;;;5.29;100.00;95366.53;1012016;29;20635;-66
2023/03/13 02:26:08;;;;;;;6.05;1.50;;;;;;;5.28;100.00;95375.38;1012741;29;20268;-67
2023/03/13 02:26:38;;;;;;;4.78;1.52;;;;;;;5.25;100.00;95365.44;1021860;29;20251;-65
2023/03/13 02:27:08;;;;;;;7.63;3.25;;;;;;;5.29;100.00;95363.94;1020109;29;20032;-66
2023/03/13 02:27:39;;;;;;;5.20;1.00;;;;;;;5.30;100.00;95370.75;1020245;29;20023;-66
2023/03/13 02:28:12;;;;;;;3.00;0.80;;;;;;;5.30;100.00;95369.94;1019906;29;20016;-66
2023/03/13 02:28:42;;;;;;;2.92;0.90;;;;;;;5.29;100.00;95369.16;1016779;29;20004;-66
2023/03/13 02:29:17;;;;;;;3.45;1.00;;;;;;;5.29;100.00;95369.16;1016192;29;20260;-66
2023/03/13 02:29:47;;;;;;;4.10;0.75;;;;;;;5.30;100.00;95365.53;1012208;29;20065;-66
2023/03/13 02:30:18;;;;;;;6.47;1.23;;;;;;;5.32;100.00;95365.28;1012385;29;20774;-65
2023/03/13 02:30:49;;;;;;;2.42;0.60;;;;;;;5.33;100.00;95364.25;1008144;29;20017;-66
2023/03/13 02:31:20;;;;;;;3.10;1.02;;;;;;;5.29;100.00;95361.34;1008565;29;20487;-66
2023/03/13 02:31:50;;;;;;;1.23;1.00;;;;;;;5.33;100.00;95366.84;1012228;29;20261;-65